createdAt,value
2022-11-10T00:00:39.667Z,55.38
2022-11-10T00:03:28.307Z,55.47
2022-11-10T00:06:13.618Z,55.18
2022-11-10T00:08:59.056Z,55.39
2022-11-10T00:11:44.370Z,55.32
2022-11-10T00:14:48.178Z,55.24
2022-11-10T00:17:37.090Z,55.02
2022-11-10T00:20:22.476Z,55.33
2022-11-10T00:23:07.825Z,54.98
2022-11-10T00:25:53.112Z,55.21
2022-11-10T00:28:38.501Z,55.34
2022-11-10T00:31:23.915Z,55.37
2022-11-10T00:34:12.989Z,55.21
2022-11-10T00:36:58.144Z,55.31
2022-11-10T00:39:43.458Z,55.11
2022-11-10T00:42:28.965Z,55.07
2022-11-10T00:45:14.337Z,55.34
2022-11-10T00:47:59.699Z,55.44
2022-11-10T00:50:44.846Z,55.40
2022-11-10T00:53:30.161Z,55.42
2022-11-10T00:56:15.595Z,55.27
2022-11-10T00:59:00.818Z,55.17
2022-11-10T01:01:46.471Z,55.29
2022-11-10T01:04:32.535Z,55.32
2022-11-10T01:07:17.772Z,55.52
2022-11-10T01:10:03.512Z,55.37
2022-11-10T01:12:48.791Z,55.44
2022-11-10T01:15:34.241Z,55.36
2022-11-10T01:18:19.324Z,55.36
2022-11-10T01:21:05.294Z,55.35
2022-11-10T01:23:50.299Z,55.45
2022-11-10T01:26:35.645Z,55.03
2022-11-10T01:29:21.069Z,55.34
2022-11-10T01:32:06.324Z,54.90
2022-11-10T01:34:51.691Z,55.25
2022-11-10T01:37:37.286Z,55.14
2022-11-10T01:40:22.371Z,55.24
2022-11-10T01:43:10.522Z,54.93
2022-11-10T01:46:06.494Z,54.94
2022-11-10T01:48:56.300Z,54.83
2022-11-10T01:51:47.755Z,55.01
2022-11-10T01:54:36.385Z,54.96
2022-11-10T01:57:21.594Z,54.63
2022-11-10T02:00:08.166Z,54.69
2022-11-10T02:02:55.770Z,54.76
2022-11-10T02:05:40.911Z,54.97
2022-11-10T02:08:26.926Z,54.55
2022-11-10T02:11:12.518Z,54.67
2022-11-10T02:13:58.138Z,54.85
2022-11-10T02:16:43.613Z,54.72
2022-11-10T02:19:28.841Z,54.81
2022-11-10T02:22:14.243Z,54.62
2022-11-10T02:25:00.047Z,54.45
2022-11-10T02:27:45.342Z,54.34
2022-11-10T02:30:30.650Z,54.50
2022-11-10T02:33:19.107Z,54.49
2022-11-10T02:36:04.907Z,54.46
2022-11-10T02:38:50.119Z,54.19
2022-11-10T02:41:35.421Z,54.04
2022-11-10T02:44:20.905Z,54.08
2022-11-10T02:47:06.789Z,54.09
2022-11-10T02:50:02.259Z,53.78
2022-11-10T02:52:48.375Z,53.74
2022-11-10T02:55:34.096Z,53.73
2022-11-10T02:58:18.995Z,54.09
2022-11-10T03:01:06.102Z,54.15
2022-11-10T03:03:51.215Z,53.50
2022-11-10T03:06:36.697Z,53.92
2022-11-10T03:09:22.086Z,53.87
2022-11-10T03:12:07.574Z,53.78
2022-11-10T03:14:53.079Z,53.79
2022-11-10T03:17:38.651Z,53.60
2022-11-10T03:20:27.341Z,53.62
2022-11-10T03:23:12.591Z,53.38
2022-11-10T03:25:57.859Z,53.67
2022-11-10T03:28:43.228Z,53.35
2022-11-10T03:31:28.547Z,53.23
2022-11-10T03:34:13.780Z,53.30
2022-11-10T03:36:59.155Z,53.31
2022-11-10T03:39:44.542Z,53.51
2022-11-10T03:42:30.006Z,53.07
2022-11-10T03:45:16.093Z,53.44
2022-11-10T03:48:01.618Z,53.62
2022-11-10T03:50:46.926Z,53.20
2022-11-10T03:53:32.174Z,53.44
2022-11-10T03:56:17.715Z,53.19
2022-11-10T03:59:03.019Z,53.15
2022-11-10T04:01:48.259Z,53.30
2022-11-10T04:04:52.031Z,53.19
2022-11-10T04:07:55.890Z,53.15
2022-11-10T04:10:41.210Z,53.39
2022-11-10T04:13:45.027Z,53.21
2022-11-10T04:16:30.287Z,53.43
2022-11-10T04:19:15.579Z,53.44
2022-11-10T04:22:01.393Z,53.44
2022-11-10T04:24:46.858Z,53.32
2022-11-10T04:27:32.151Z,53.16
2022-11-10T04:30:17.485Z,53.60
2022-11-10T04:33:02.692Z,53.63
2022-11-10T04:35:48.043Z,53.38
2022-11-10T04:38:33.427Z,53.31
2022-11-10T04:41:19.023Z,53.32
2022-11-10T04:44:04.261Z,53.29
2022-11-10T04:46:49.987Z,53.65
2022-11-10T04:49:35.406Z,53.61
2022-11-10T04:52:29.543Z,53.34
2022-11-10T04:55:16.250Z,53.59
2022-11-10T04:58:01.846Z,53.63
2022-11-10T05:00:47.271Z,53.58
2022-11-10T05:03:32.830Z,53.28
2022-11-10T05:06:18.502Z,53.39
2022-11-10T05:09:04.054Z,53.52
2022-11-10T05:11:49.338Z,53.37
2022-11-10T05:14:34.978Z,53.36
2022-11-10T05:17:20.507Z,53.32
2022-11-10T05:20:07.108Z,53.30
2022-11-10T05:23:11.770Z,53.13
2022-11-10T05:25:57.303Z,53.19
2022-11-10T05:28:45.126Z,53.02
2022-11-10T05:31:30.627Z,53.54
2022-11-10T05:34:15.866Z,53.10
2022-11-10T05:37:01.498Z,52.87
2022-11-10T05:39:46.852Z,53.03
2022-11-10T05:42:32.227Z,53.14
2022-11-10T05:45:17.631Z,52.90
2022-11-10T05:48:03.079Z,53.04
2022-11-10T05:50:48.215Z,53.05
2022-11-10T05:53:33.546Z,52.73
2022-11-10T05:56:19.327Z,52.59
2022-11-10T05:59:04.550Z,52.92
2022-11-10T06:01:50.967Z,52.59
2022-11-10T06:04:36.289Z,52.57
2022-11-10T06:07:21.587Z,52.54
2022-11-10T06:10:07.374Z,52.33
2022-11-10T06:12:52.770Z,52.72
2022-11-10T06:15:38.146Z,52.31
2022-11-10T06:18:23.342Z,52.23
2022-11-10T06:21:08.606Z,52.60
2022-11-10T06:23:53.860Z,52.16
2022-11-10T06:26:39.187Z,52.07
2022-11-10T06:29:26.911Z,52.49
2022-11-10T06:32:12.587Z,52.11
2022-11-10T06:35:00.487Z,52.11
2022-11-10T06:37:46.506Z,51.49
2022-11-10T06:40:32.583Z,50.95
2022-11-10T06:43:18.155Z,51.51
2022-11-10T06:46:03.472Z,51.09
2022-11-10T06:48:49.149Z,51.18
2022-11-10T06:51:40.780Z,51.35
2022-11-10T06:54:26.429Z,51.65
2022-11-10T06:57:11.844Z,51.62
2022-11-10T06:59:56.911Z,51.83
2022-11-10T07:02:42.379Z,51.77
2022-11-10T07:05:28.049Z,51.71
2022-11-10T07:08:16.106Z,51.95
2022-11-10T07:11:01.582Z,52.09
2022-11-10T07:13:46.837Z,52.11
2022-11-10T07:16:32.232Z,52.21
2022-11-10T07:19:17.750Z,52.45
2022-11-10T07:22:08.043Z,52.45
2022-11-10T07:24:55.879Z,52.24
2022-11-10T07:27:41.190Z,52.33
2022-11-10T07:30:28.057Z,52.26
2022-11-10T07:33:14.811Z,52.43
2022-11-10T07:36:03.528Z,52.64
2022-11-10T07:38:48.912Z,52.43
2022-11-10T07:41:34.286Z,52.63
2022-11-10T07:44:19.749Z,52.98
2022-11-10T07:47:05.202Z,52.77
2022-11-10T07:49:50.450Z,52.89
2022-11-10T07:52:35.742Z,53.02
2022-11-10T07:55:21.911Z,52.92
2022-11-10T07:58:08.011Z,53.21
2022-11-10T08:00:53.428Z,53.29
2022-11-10T08:03:38.872Z,53.38
2022-11-10T08:06:24.256Z,53.77
2022-11-10T08:09:09.643Z,53.75
2022-11-10T08:11:55.588Z,53.69
2022-11-10T08:14:40.934Z,54.02
2022-11-10T08:17:26.437Z,54.23
2022-11-10T08:20:11.869Z,54.33
2022-11-10T08:23:01.883Z,54.03
2022-11-10T08:25:47.947Z,54.41
2022-11-10T08:28:33.512Z,54.33
2022-11-10T08:31:18.719Z,54.11
2022-11-10T08:34:04.413Z,54.32
2022-11-10T08:36:52.852Z,54.31
2022-11-10T08:39:39.501Z,54.61
2022-11-10T08:42:25.210Z,54.42
2022-11-10T08:45:10.686Z,54.61
2022-11-10T08:48:00.006Z,54.62
2022-11-10T08:50:46.112Z,54.72
2022-11-10T08:53:31.631Z,54.86
2022-11-10T08:56:17.055Z,55.44
2022-11-10T08:59:02.550Z,54.97
2022-11-10T09:01:47.791Z,55.33
2022-11-10T09:04:33.441Z,55.39
2022-11-10T09:07:18.689Z,55.15
2022-11-10T09:10:08.064Z,55.43
2022-11-10T09:12:53.875Z,55.32
2022-11-10T09:15:39.672Z,55.74
2022-11-10T09:18:25.074Z,55.58
2022-11-10T09:21:11.980Z,55.86
2022-11-10T09:23:57.213Z,56.36
2022-11-10T09:26:45.290Z,56.21
2022-11-10T09:29:30.919Z,56.25
2022-11-10T09:32:16.076Z,56.10
2022-11-10T09:35:02.189Z,56.13
2022-11-10T09:37:47.160Z,55.85
2022-11-10T09:40:51.031Z,55.89
2022-11-10T09:43:39.357Z,55.65
2022-11-10T09:46:27.730Z,56.02
2022-11-10T09:49:23.664Z,55.97
2022-11-10T09:52:10.913Z,55.86
2022-11-10T09:54:59.876Z,56.10
2022-11-10T09:57:49.040Z,55.87
2022-11-10T10:00:35.471Z,56.20
2022-11-10T10:03:26.405Z,56.47
2022-11-10T10:06:12.815Z,56.42
2022-11-10T10:09:16.911Z,56.21
2022-11-10T10:12:24.503Z,56.18
2022-11-10T10:15:30.517Z,56.06
2022-11-10T10:18:25.100Z,56.22
2022-11-10T10:21:38.947Z,56.71
2022-11-10T10:24:27.680Z,56.66
2022-11-10T10:27:22.154Z,56.92
2022-11-10T10:30:15.912Z,57.44
2022-11-10T10:33:11.945Z,56.62
2022-11-10T10:35:57.789Z,56.62
2022-11-10T10:38:44.348Z,56.71
2022-11-10T10:41:32.231Z,56.49
2022-11-10T10:44:19.499Z,56.72
2022-11-10T10:47:04.931Z,56.95
2022-11-10T10:49:50.630Z,56.81
2022-11-10T10:52:36.499Z,56.46
2022-11-10T10:55:28.144Z,56.78
2022-11-10T10:58:21.528Z,56.77
2022-11-10T11:01:16.472Z,56.23
2022-11-10T11:04:06.256Z,56.57
2022-11-10T11:07:19.823Z,56.76
2022-11-10T11:10:22.089Z,57.01
2022-11-10T11:13:16.141Z,56.70
2022-11-10T11:16:04.078Z,56.76
2022-11-10T11:18:50.602Z,57.00
2022-11-10T11:21:44.906Z,57.04
2022-11-10T11:24:51.878Z,56.71
2022-11-10T11:27:51.265Z,57.03
2022-11-10T11:30:49.138Z,56.60
2022-11-10T11:33:37.471Z,56.71
2022-11-10T11:36:51.516Z,56.86
2022-11-10T11:39:42.782Z,56.62
2022-11-10T11:42:43.709Z,56.79
2022-11-10T11:45:48.831Z,57.11
2022-11-10T11:49:16.283Z,57.52
2022-11-10T11:52:16.736Z,57.94
2022-11-10T11:55:20.435Z,57.94
2022-11-10T11:58:22.386Z,58.16
2022-11-10T12:01:08.426Z,58.62
2022-11-10T12:04:15.374Z,58.60
2022-11-10T12:07:23.298Z,58.54
2022-11-10T12:10:31.155Z,58.52
2022-11-10T12:13:19.943Z,58.34
2022-11-10T12:16:23.333Z,58.39
2022-11-10T12:19:41.144Z,58.42
2022-11-10T12:22:48.006Z,58.69
2022-11-10T12:25:56.334Z,58.71
2022-11-10T12:28:49.801Z,58.90
2022-11-10T12:31:38.135Z,58.47
2022-11-10T12:34:37.447Z,58.67
2022-11-10T12:37:29.740Z,58.94
2022-11-10T12:40:16.609Z,59.11
2022-11-10T12:43:04.678Z,59.12
2022-11-10T12:45:54.385Z,59.37
2022-11-10T12:49:38.359Z,59.53
2022-11-10T12:52:39.607Z,59.15
2022-11-10T12:55:32.681Z,59.10
2022-11-10T12:58:19.948Z,59.64
2022-11-10T13:01:15.472Z,59.95
2022-11-10T13:04:01.290Z,59.59
2022-11-10T13:06:51.730Z,59.71
2022-11-10T13:09:39.726Z,59.76
2022-11-10T13:12:26.019Z,59.99
2022-11-10T13:15:39.225Z,59.76
2022-11-10T13:18:44.232Z,60.05
2022-11-10T13:21:50.835Z,59.80
2022-11-10T13:24:40.628Z,60.03
2022-11-10T13:27:37.828Z,59.89
2022-11-10T13:30:46.700Z,59.89
2022-11-10T13:33:37.242Z,59.78
2022-11-10T13:36:39.348Z,60.50
2022-11-10T13:39:27.800Z,60.36
2022-11-10T13:42:20.769Z,60.05
2022-11-10T13:45:31.291Z,60.23
2022-11-10T13:48:31.778Z,60.32
2022-11-10T13:51:23.102Z,59.75
2022-11-10T13:54:15.891Z,60.10
2022-11-10T13:57:25.402Z,60.05
2022-11-10T14:00:14.019Z,60.01
2022-11-10T14:03:07.662Z,60.04
2022-11-10T14:06:06.578Z,60.14
2022-11-10T14:09:15.175Z,60.08
2022-11-10T14:12:05.422Z,60.31
2022-11-10T14:14:55.332Z,60.41
2022-11-10T14:17:49.211Z,60.28
2022-11-10T14:20:37.523Z,60.29
2022-11-10T14:23:27.077Z,60.54
2022-11-10T14:26:19.533Z,60.14
2022-11-10T14:29:41.131Z,60.46
2022-11-10T14:32:26.649Z,60.26
2022-11-10T14:35:20.748Z,60.05
2022-11-10T14:38:07.364Z,59.85
2022-11-10T14:41:01.075Z,59.92
2022-11-10T14:44:02.169Z,59.51
2022-11-10T14:46:47.096Z,59.77
2022-11-10T14:49:32.209Z,59.82
2022-11-10T14:52:17.591Z,59.59
2022-11-10T14:55:12.283Z,59.38
2022-11-10T14:58:03.927Z,59.10
2022-11-10T15:00:49.415Z,59.32
2022-11-10T15:03:42.411Z,59.05
2022-11-10T15:06:27.971Z,59.15
2022-11-10T15:09:14.271Z,58.96
2022-11-10T15:12:20.638Z,59.35
2022-11-10T15:15:20.158Z,58.96
2022-11-10T15:18:05.593Z,58.80
2022-11-10T15:21:05.569Z,58.92
2022-11-10T15:23:55.516Z,58.91
2022-11-10T15:26:41.375Z,58.83
2022-11-10T15:29:29.030Z,58.87
2022-11-10T15:32:21.125Z,58.91
2022-11-10T15:35:23.358Z,59.16
2022-11-10T15:38:14.564Z,59.07
2022-11-10T15:41:15.751Z,58.66
2022-11-10T15:44:19.368Z,59.21
2022-11-10T15:47:05.169Z,58.90
2022-11-10T15:49:51.235Z,58.97
2022-11-10T15:52:37.982Z,58.83
2022-11-10T15:55:24.719Z,59.14
2022-11-10T15:58:21.739Z,59.18
2022-11-10T16:01:11.052Z,58.91
2022-11-10T16:03:56.230Z,58.69
2022-11-10T16:06:41.799Z,59.02
2022-11-10T16:09:27.365Z,59.31
2022-11-10T16:12:19.898Z,59.14
2022-11-10T16:15:06.359Z,59.41
2022-11-10T16:17:51.932Z,58.78
2022-11-10T16:20:37.287Z,59.27
2022-11-10T16:23:23.310Z,59.03
2022-11-10T16:26:13.381Z,59.17
2022-11-10T16:29:00.652Z,58.93
2022-11-10T16:31:45.779Z,58.77
2022-11-10T16:34:31.476Z,58.78
2022-11-10T16:37:16.486Z,58.96
2022-11-10T16:40:03.846Z,58.59
2022-11-10T16:42:49.625Z,58.76
2022-11-10T16:45:34.937Z,59.45
2022-11-10T16:48:23.281Z,59.52
2022-11-10T16:51:09.150Z,59.45
2022-11-10T16:53:56.626Z,59.80
2022-11-10T16:56:42.419Z,59.53
2022-11-10T16:59:27.898Z,60.00
2022-11-10T17:02:25.731Z,59.69
2022-11-10T17:05:14.607Z,59.91
2022-11-10T17:08:00.444Z,59.78
2022-11-10T17:10:45.808Z,59.83
2022-11-10T17:13:31.103Z,59.77
2022-11-10T17:16:21.214Z,59.47
2022-11-10T17:19:07.578Z,59.84
2022-11-10T17:21:53.914Z,59.67
2022-11-10T17:24:39.137Z,59.60
2022-11-10T17:27:26.310Z,59.50
2022-11-10T17:30:13.310Z,59.18
2022-11-10T17:33:04.721Z,59.12
2022-11-10T17:35:51.335Z,58.89
2022-11-10T17:38:36.921Z,58.80
2022-11-10T17:41:22.384Z,59.05
2022-11-10T17:44:16.932Z,59.01
2022-11-10T17:47:01.990Z,58.71
2022-11-10T17:49:47.322Z,58.35
2022-11-10T17:52:32.693Z,58.76
2022-11-10T17:55:23.083Z,58.43
2022-11-10T17:58:09.726Z,58.55
2022-11-10T18:00:55.171Z,58.22
2022-11-10T18:03:40.505Z,58.31
2022-11-10T18:06:26.013Z,57.95
2022-11-10T18:09:11.439Z,57.97
2022-11-10T18:11:56.913Z,57.67
2022-11-10T18:14:42.251Z,57.65
2022-11-10T18:17:27.453Z,57.76
2022-11-10T18:20:14.497Z,57.33
2022-11-10T18:23:00.083Z,57.48
2022-11-10T18:25:45.810Z,57.04
2022-11-10T18:28:31.207Z,57.14
2022-11-10T18:31:18.350Z,57.01
2022-11-10T18:34:03.584Z,57.01
2022-11-10T18:36:48.799Z,56.87
2022-11-10T18:39:34.250Z,57.07
2022-11-10T18:42:19.586Z,57.01
2022-11-10T18:45:05.213Z,56.66
2022-11-10T18:47:50.513Z,56.87
2022-11-10T18:50:38.435Z,56.49
2022-11-10T18:53:23.926Z,56.43
2022-11-10T18:56:09.863Z,56.39
2022-11-10T18:58:57.092Z,56.52
2022-11-10T19:01:42.809Z,56.49
2022-11-10T19:04:28.322Z,56.61
2022-11-10T19:07:13.433Z,56.22
2022-11-10T19:09:59.925Z,56.46
2022-11-10T19:12:45.050Z,56.03
2022-11-10T19:15:30.475Z,56.30
2022-11-10T19:18:16.209Z,56.16
2022-11-10T19:21:10.889Z,56.11
2022-11-10T19:23:59.674Z,56.30
2022-11-10T19:26:45.394Z,56.24
2022-11-10T19:29:31.293Z,56.32
2022-11-10T19:32:20.795Z,56.43
2022-11-10T19:35:09.354Z,56.25
2022-11-10T19:37:54.915Z,56.10
2022-11-10T19:40:40.743Z,56.14
2022-11-10T19:43:26.284Z,56.43
2022-11-10T19:46:19.603Z,56.43
2022-11-10T19:49:06.240Z,56.47
2022-11-10T19:51:51.838Z,56.21
2022-11-10T19:54:37.546Z,55.97
2022-11-10T19:57:23.226Z,56.21
2022-11-10T20:00:10.310Z,56.18
2022-11-10T20:02:55.714Z,56.20
2022-11-10T20:05:43.170Z,56.16
2022-11-10T20:08:28.428Z,56.58
2022-11-10T20:11:25.979Z,56.08
2022-11-10T20:14:11.274Z,56.17
2022-11-10T20:16:57.168Z,56.21
2022-11-10T20:19:42.398Z,56.45
2022-11-10T20:22:27.931Z,56.25
2022-11-10T20:25:13.587Z,56.12
2022-11-10T20:28:01.420Z,56.37
2022-11-10T20:30:46.473Z,56.45
2022-11-10T20:33:32.455Z,56.24
2022-11-10T20:36:26.223Z,56.05
2022-11-10T20:39:11.704Z,55.98
2022-11-10T20:41:56.897Z,56.14
2022-11-10T20:44:42.235Z,55.86
2022-11-10T20:47:28.215Z,56.34
2022-11-10T20:50:16.384Z,56.02
2022-11-10T20:53:05.830Z,55.94
2022-11-10T20:55:57.783Z,56.10
2022-11-10T20:58:43.420Z,55.81
2022-11-10T21:01:29.316Z,56.04
2022-11-10T21:04:14.792Z,55.91
2022-11-10T21:07:00.172Z,55.55
2022-11-10T21:09:45.471Z,55.69
2022-11-10T21:12:49.364Z,55.61
2022-11-10T21:15:37.582Z,55.92
2022-11-10T21:18:34.051Z,55.75
2022-11-10T21:21:21.810Z,55.34
2022-11-10T21:24:08.351Z,55.79
2022-11-10T21:26:54.633Z,55.85
2022-11-10T21:29:40.080Z,55.42
2022-11-10T21:32:25.687Z,55.58
2022-11-10T21:35:12.153Z,55.83
2022-11-10T21:37:57.470Z,55.39
2022-11-10T21:40:42.874Z,55.48
2022-11-10T21:43:28.266Z,55.40
2022-11-10T21:46:13.728Z,55.81
2022-11-10T21:49:03.150Z,55.75
2022-11-10T21:51:52.459Z,55.52
2022-11-10T21:54:38.187Z,55.53
2022-11-10T21:57:24.834Z,55.39
2022-11-10T22:00:11.477Z,55.79
2022-11-10T22:03:01.314Z,55.35
2022-11-10T22:05:46.510Z,55.66
2022-11-10T22:08:32.246Z,55.44
2022-11-10T22:11:40.346Z,55.33
2022-11-10T22:14:44.475Z,55.37
2022-11-10T22:17:48.270Z,55.13
2022-11-10T22:20:33.693Z,55.01
2022-11-10T22:23:38.985Z,55.12
2022-11-10T22:26:24.101Z,54.88
2022-11-10T22:29:09.551Z,55.12
2022-11-10T22:31:54.894Z,55.06
2022-11-10T22:34:40.415Z,55.18
2022-11-10T22:37:32.997Z,54.80
2022-11-10T22:40:37.335Z,55.00
2022-11-10T22:43:41.434Z,54.58
2022-11-10T22:46:26.685Z,54.76
2022-11-10T22:49:16.475Z,54.99
2022-11-10T22:52:02.165Z,54.85
2022-11-10T22:54:47.517Z,54.75
2022-11-10T22:57:32.835Z,54.82
2022-11-10T23:00:18.222Z,54.74
2022-11-10T23:03:03.757Z,54.68
2022-11-10T23:05:56.431Z,54.45
2022-11-10T23:08:42.107Z,54.55
2022-11-10T23:11:29.311Z,54.60
2022-11-10T23:14:14.491Z,54.24
2022-11-10T23:16:59.842Z,54.27
2022-11-10T23:19:45.104Z,54.61
2022-11-10T23:22:30.418Z,54.14
2022-11-10T23:25:15.744Z,54.69
2022-11-10T23:28:01.164Z,54.23
2022-11-10T23:30:46.415Z,54.51
2022-11-10T23:33:33.280Z,54.38
2022-11-10T23:36:19.781Z,54.42
2022-11-10T23:39:04.982Z,54.03
2022-11-10T23:41:50.383Z,54.30
2022-11-10T23:44:35.597Z,54.18
2022-11-10T23:47:20.862Z,53.82
2022-11-10T23:50:06.639Z,53.89
2022-11-10T23:52:52.086Z,54.09
2022-11-10T23:55:37.510Z,53.78
2022-11-10T23:58:23.096Z,53.77
